Terminal Aerodrome Forecast
Issued by NWS

Home | Current Version | Previous Version | Text Only | Print | Product List | Glossary On
Versions: 1 2 3 4 5 6 7 8 9 10 11 12 13
275
FTUS43 KGRB 260520
TAFCWA
TAF
KCWA 260520Z 2606/2706 VRB03KT P6SM SCT040 OVC100
      TEMPO 2606/2609 4SM -SHRA BR
     FM260900 11003KT P6SM VCSH SCT009 OVC030
      TEMPO 2609/2613 3SM -SHRA BR BKN009
     FM261300 18003KT 5SM BR VCSH OVC007
     FM261600 24007KT 6SM -SHRA OVC012
      TEMPO 2616/2620 4SM -TSRA BKN012CB
     FM262000 27010KT P6SM VCSH OVC020
      AMD LTD TO CLD VIS AND WIND TIL 261100=

USA.gov is the U.S. government's official web portal to all federal, state and local government web resources and services.